sensor_id;sensor_type;location;lat;lon;timestamp;pressure;altitude;pressure_sealevel;temperature;humidity
80323;BME280;69636;52.372;13.610;2023-12-29T00:00:16;100722.72;;;7.23;96.28
80323;BME280;69636;52.372;13.610;2023-12-29T00:02:44;100725.09;;;7.26;95.90
80323;BME280;69636;52.372;13.610;2023-12-29T00:05:44;100716.75;;;7.21;96.05
80323;BME280;69636;52.372;13.610;2023-12-29T00:08:11;100724.28;;;7.26;96.11
80323;BME280;69636;52.372;13.610;2023-12-29T00:10:39;100720.09;;;7.33;95.20
80323;BME280;69636;52.372;13.610;2023-12-29T00:13:16;100708.72;;;7.32;95.37
80323;BME280;69636;52.372;13.610;2023-12-29T00:15:43;100717.19;;;7.26;95.82
80323;BME280;69636;52.372;13.610;2023-12-29T00:18:11;100713.59;;;7.27;95.43
80323;BME280;69636;52.372;13.610;2023-12-29T00:20:38;100718.69;;;7.29;95.59
80323;BME280;69636;52.372;13.610;2023-12-29T00:23:13;100709.94;;;7.28;95.26
80323;BME280;69636;52.372;13.610;2023-12-29T00:25:40;100698.72;;;7.36;94.81
80323;BME280;69636;52.372;13.610;2023-12-29T00:31:25;100685.13;;;7.40;94.52
80323;BME280;69636;52.372;13.610;2023-12-29T00:33:53;100679.56;;;7.43;94.55
80323;BME280;69636;52.372;13.610;2023-12-29T00:36:20;100686.78;;;7.41;94.39
80323;BME280;69636;52.372;13.610;2023-12-29T00:38:47;100681.63;;;7.40;94.16
80323;BME280;69636;52.372;13.610;2023-12-29T00:41:15;100675.09;;;7.34;94.45
80323;BME280;69636;52.372;13.610;2023-12-29T00:43:42;100668.75;;;7.46;93.73
80323;BME280;69636;52.372;13.610;2023-12-29T00:46:10;100672.56;;;7.33;94.42
80323;BME280;69636;52.372;13.610;2023-12-29T00:48:39;100671.91;;;7.40;93.99
80323;BME280;69636;52.372;13.610;2023-12-29T00:51:07;100673.59;;;7.41;93.62
80323;BME280;69636;52.372;13.610;2023-12-29T00:53:34;100667.34;;;7.42;93.60
80323;BME280;69636;52.372;13.610;2023-12-29T00:56:02;100663.72;;;7.43;93.58
80323;BME280;69636;52.372;13.610;2023-12-29T00:58:29;100654.16;;;7.52;93.08
80323;BME280;69636;52.372;13.610;2023-12-29T01:00:56;100659.56;;;7.51;92.98
80323;BME280;69636;52.372;13.610;2023-12-29T01:03:24;100660.13;;;7.44;93.48
80323;BME280;69636;52.372;13.610;2023-12-29T01:05:54;100660.38;;;7.41;93.60
80323;BME280;69636;52.372;13.610;2023-12-29T01:08:21;100657.75;;;7.41;93.74
80323;BME280;69636;52.372;13.610;2023-12-29T01:10:48;100660.91;;;7.35;93.79
80323;BME280;69636;52.372;13.610;2023-12-29T01:13:16;100658.13;;;7.37;93.93
80323;BME280;69636;52.372;13.610;2023-12-29T01:15:43;100650.78;;;7.40;93.91
80323;BME280;69636;52.372;13.610;2023-12-29T01:18:11;100644.81;;;7.38;93.98
80323;BME280;69636;52.372;13.610;2023-12-29T01:20:38;100650.66;;;7.42;93.71
80323;BME280;69636;52.372;13.610;2023-12-29T01:23:07;100647.44;;;7.38;94.00
80323;BME280;69636;52.372;13.610;2023-12-29T01:25:34;100657.31;;;7.36;93.99
80323;BME280;69636;52.372;13.610;2023-12-29T01:28:02;100650.69;;;7.52;93.31
80323;BME280;69636;52.372;13.610;2023-12-29T01:30:29;100650.53;;;7.43;93.94
80323;BME280;69636;52.372;13.610;2023-12-29T01:32:57;100642.47;;;7.45;93.70
80323;BME280;69636;52.372;13.610;2023-12-29T01:35:24;100646.25;;;7.52;93.35
80323;BME280;69636;52.372;13.610;2023-12-29T01:37:51;100650.25;;;7.46;93.61
80323;BME280;69636;52.372;13.610;2023-12-29T01:40:20;100642.88;;;7.40;94.32
80323;BME280;69636;52.372;13.610;2023-12-29T01:42:48;100637.84;;;7.37;94.33
80323;BME280;69636;52.372;13.610;2023-12-29T01:45:20;100628.41;;;7.54;93.10
80323;BME280;69636;52.372;13.610;2023-12-29T01:47:48;100622.03;;;7.57;92.93
80323;BME280;69636;52.372;13.610;2023-12-29T01:50:17;100623.72;;;7.48;93.46
80323;BME280;69636;52.372;13.610;2023-12-29T01:52:48;100620.34;;;7.56;93.30
80323;BME280;69636;52.372;13.610;2023-12-29T01:55:20;100614.81;;;7.59;92.86
80323;BME280;69636;52.372;13.610;2023-12-29T01:57:48;100607.84;;;7.58;92.81
80323;BME280;69636;52.372;13.610;2023-12-29T02:00:16;100602.00;;;7.44;93.90
80323;BME280;69636;52.372;13.610;2023-12-29T02:02:46;100602.97;;;7.43;93.79
80323;BME280;69636;52.372;13.610;2023-12-29T02:05:14;100598.53;;;7.54;93.69
80323;BME280;69636;52.372;13.610;2023-12-29T02:07:42;100593.94;;;7.56;93.26
80323;BME280;69636;52.372;13.610;2023-12-29T02:10:09;100589.34;;;7.58;92.97
80323;BME280;69636;52.372;13.610;2023-12-29T02:12:38;100586.47;;;7.70;92.14
80323;BME280;69636;52.372;13.610;2023-12-29T02:15:06;100582.84;;;7.62;92.40
80323;BME280;69636;52.372;13.610;2023-12-29T02:17:38;100586.72;;;7.48;93.36
80323;BME280;69636;52.372;13.610;2023-12-29T02:20:08;100580.34;;;7.51;93.28
80323;BME280;69636;52.372;13.610;2023-12-29T02:22:51;100583.94;;;7.49;93.33
80323;BME280;69636;52.372;13.610;2023-12-29T02:25:20;100577.09;;;7.37;94.14
80323;BME280;69636;52.372;13.610;2023-12-29T02:27:52;100578.09;;;7.36;94.12
80323;BME280;69636;52.372;13.610;2023-12-29T02:30:25;100582.09;;;7.31;94.30
80323;BME280;69636;52.372;13.610;2023-12-29T02:32:55;100574.75;;;7.34;94.05
80323;BME280;69636;52.372;13.610;2023-12-29T02:35:28;100564.19;;;7.44;93.32
80323;BME280;69636;52.372;13.610;2023-12-29T02:37:56;100565.84;;;7.35;93.79
80323;BME280;69636;52.372;13.610;2023-12-29T02:40:26;100565.56;;;7.38;93.36
80323;BME280;69636;52.372;13.610;2023-12-29T02:42:53;100565.00;;;7.35;93.81
80323;BME280;69636;52.372;13.610;2023-12-29T02:45:21;100556.97;;;7.36;93.58
80323;BME280;69636;52.372;13.610;2023-12-29T02:47:48;100555.97;;;7.28;94.15
80323;BME280;69636;52.372;13.610;2023-12-29T02:50:16;100547.78;;;7.21;94.55
80323;BME280;69636;52.372;13.610;2023-12-29T02:52:43;100545.69;;;7.34;94.02
80323;BME280;69636;52.372;13.610;2023-12-29T02:55:11;100548.59;;;7.31;94.09
80323;BME280;69636;52.372;13.610;2023-12-29T02:57:40;100538.06;;;7.22;94.26
80323;BME280;69636;52.372;13.610;2023-12-29T03:00:07;100536.94;;;7.14;94.87
80323;BME280;69636;52.372;13.610;2023-12-29T03:02:35;100544.53;;;7.08;95.35
80323;BME280;69636;52.372;13.610;2023-12-29T03:05:02;100535.22;;;7.04;95.50
80323;BME280;69636;52.372;13.610;2023-12-29T03:07:30;100527.59;;;7.10;95.25
80323;BME280;69636;52.372;13.610;2023-12-29T03:09:57;100523.03;;;7.32;94.19
80323;BME280;69636;52.372;13.610;2023-12-29T03:12:24;100525.97;;;7.19;94.74
80323;BME280;69636;52.372;13.610;2023-12-29T03:14:53;100517.78;;;7.22;94.54
80323;BME280;69636;52.372;13.610;2023-12-29T03:17:20;100519.41;;;7.13;95.34
80323;BME280;69636;52.372;13.610;2023-12-29T03:19:48;100517.44;;;7.06;95.58
80323;BME280;69636;52.372;13.610;2023-12-29T03:22:15;100518.59;;;7.13;95.35
80323;BME280;69636;52.372;13.610;2023-12-29T03:24:43;100514.28;;;7.12;95.38
80323;BME280;69636;52.372;13.610;2023-12-29T03:27:10;100514.28;;;7.12;95.39
80323;BME280;69636;52.372;13.610;2023-12-29T03:29:38;100512.31;;;7.04;95.47
80323;BME280;69636;52.372;13.610;2023-12-29T03:32:06;100506.66;;;7.19;95.14
80323;BME280;69636;52.372;13.610;2023-12-29T03:34:34;100500.94;;;7.13;95.04
80323;BME280;69636;52.372;13.610;2023-12-29T03:37:01;100498.59;;;7.20;94.62
80323;BME280;69636;52.372;13.610;2023-12-29T03:39:28;100493.84;;;7.14;94.92
80323;BME280;69636;52.372;13.610;2023-12-29T03:41:56;100493.59;;;7.17;94.79
80323;BME280;69636;52.372;13.610;2023-12-29T03:44:23;100494.41;;;7.18;94.90
80323;BME280;69636;52.372;13.610;2023-12-29T03:46:50;100499.41;;;7.21;94.57
80323;BME280;69636;52.372;13.610;2023-12-29T03:49:19;100496.66;;;7.22;94.22
80323;BME280;69636;52.372;13.610;2023-12-29T03:51:46;100494.69;;;7.34;93.86
80323;BME280;69636;52.372;13.610;2023-12-29T03:54:14;100487.19;;;7.20;94.36
80323;BME280;69636;52.372;13.610;2023-12-29T03:56:41;100475.50;;;7.12;95.11
80323;BME280;69636;52.372;13.610;2023-12-29T03:59:09;100490.09;;;7.17;94.87
80323;BME280;69636;52.372;13.610;2023-12-29T04:01:36;100481.63;;;7.13;95.04
80323;BME280;69636;52.372;13.610;2023-12-29T04:04:04;100490.81;;;7.19;94.55
80323;BME280;69636;52.372;13.610;2023-12-29T04:06:32;100499.13;;;7.14;94.85
80323;BME280;69636;52.372;13.610;2023-12-29T04:09:00;100491.34;;;7.12;94.99
80323;BME280;69636;52.372;13.610;2023-12-29T04:11:27;100497.31;;;7.14;94.87
80323;BME280;69636;52.372;13.610;2023-12-29T04:13:54;100474.13;;;7.28;94.11
80323;BME280;69636;52.372;13.610;2023-12-29T04:16:22;100467.72;;;7.30;94.11
80323;BME280;69636;52.372;13.610;2023-12-29T04:18:49;100475.25;;;7.25;94.38
80323;BME280;69636;52.372;13.610;2023-12-29T04:21:16;100477.75;;;7.27;94.23
80323;BME280;69636;52.372;13.610;2023-12-29T04:23:45;100458.56;;;7.34;93.93
80323;BME280;69636;52.372;13.610;2023-12-29T04:26:12;100462.59;;;7.48;93.21
80323;BME280;69636;52.372;13.610;2023-12-29T04:28:40;100453.97;;;7.46;93.04
80323;BME280;69636;52.372;13.610;2023-12-29T04:31:07;100455.91;;;7.44;93.47
80323;BME280;69636;52.372;13.610;2023-12-29T04:33:34;100451.34;;;7.36;94.11
80323;BME280;69636;52.372;13.610;2023-12-29T04:36:02;100455.22;;;7.32;94.16
80323;BME280;69636;52.372;13.610;2023-12-29T04:38:29;100449.94;;;7.32;94.40
80323;BME280;69636;52.372;13.610;2023-12-29T04:40:58;100453.28;;;7.34;94.12
80323;BME280;69636;52.372;13.610;2023-12-29T04:43:25;100454.94;;;7.35;94.34
80323;BME280;69636;52.372;13.610;2023-12-29T04:45:52;100446.47;;;7.32;94.54
80323;BME280;69636;52.372;13.610;2023-12-29T04:48:20;100452.44;;;7.43;94.10
80323;BME280;69636;52.372;13.610;2023-12-29T04:50:47;100451.19;;;7.47;93.95
80323;BME280;69636;52.372;13.610;2023-12-29T04:53:14;100440.34;;;7.51;94.04
80323;BME280;69636;52.372;13.610;2023-12-29T04:55:42;100445.59;;;7.70;93.19
80323;BME280;69636;52.372;13.610;2023-12-29T04:58:11;100444.34;;;7.55;93.88
80323;BME280;69636;52.372;13.610;2023-12-29T05:00:38;100439.06;;;7.55;93.75
80323;BME280;69636;52.372;13.610;2023-12-29T05:03:05;100434.94;;;7.52;94.31
80323;BME280;69636;52.372;13.610;2023-12-29T05:05:33;100426.56;;;7.57;93.96
80323;BME280;69636;52.372;13.610;2023-12-29T05:08:00;100426.56;;;7.57;94.01
80323;BME280;69636;52.372;13.610;2023-12-29T05:10:28;100431.28;;;7.63;93.69
80323;BME280;69636;52.372;13.610;2023-12-29T05:12:55;100432.81;;;7.56;94.22
80323;BME280;69636;52.372;13.610;2023-12-29T05:15:23;100415.84;;;7.58;93.78
80323;BME280;69636;52.372;13.610;2023-12-29T05:17:51;100420.97;;;7.79;92.83
80323;BME280;69636;52.372;13.610;2023-12-29T05:20:19;100424.19;;;7.73;93.20
80323;BME280;69636;52.372;13.610;2023-12-29T05:22:46;100425.16;;;7.72;93.10
80323;BME280;69636;52.372;13.610;2023-12-29T05:25:13;100416.66;;;7.68;93.34
80323;BME280;69636;52.372;13.610;2023-12-29T05:27:41;100408.31;;;7.73;92.99
80323;BME280;69636;52.372;13.610;2023-12-29T05:30:11;100418.31;;;7.79;92.89
80323;BME280;69636;52.372;13.610;2023-12-29T05:32:39;100419.47;;;7.67;93.47
80323;BME280;69636;52.372;13.610;2023-12-29T05:35:07;100416.34;;;7.81;92.49
80323;BME280;69636;52.372;13.610;2023-12-29T05:37:34;100414.31;;;7.75;92.88
80323;BME280;69636;52.372;13.610;2023-12-29T05:40:02;100400.13;;;7.76;92.84
80323;BME280;69636;52.372;13.610;2023-12-29T05:42:30;100410.75;;;7.94;91.74
80323;BME280;69636;52.372;13.610;2023-12-29T05:44:57;100422.03;;;7.86;91.89
80323;BME280;69636;52.372;13.610;2023-12-29T05:47:24;100419.25;;;7.88;91.62
80323;BME280;69636;52.372;13.610;2023-12-29T05:49:53;100411.72;;;7.93;91.16
80323;BME280;69636;52.372;13.610;2023-12-29T05:52:21;100419.22;;;7.97;90.76
80323;BME280;69636;52.372;13.610;2023-12-29T05:54:48;100414.63;;;7.99;90.66
80323;BME280;69636;52.372;13.610;2023-12-29T05:57:16;100422.56;;;7.99;90.44
80323;BME280;69636;52.372;13.610;2023-12-29T05:59:44;100417.56;;;7.96;90.68
80323;BME280;69636;52.372;13.610;2023-12-29T06:02:11;100418.06;;;8.09;90.00
80323;BME280;69636;52.372;13.610;2023-12-29T06:04:38;100425.91;;;8.01;90.54
80323;BME280;69636;52.372;13.610;2023-12-29T06:07:07;100428.13;;;7.96;90.77
80323;BME280;69636;52.372;13.610;2023-12-29T06:09:35;100416.38;;;8.08;90.37
80323;BME280;69636;52.372;13.610;2023-12-29T06:12:03;100418.66;;;8.03;90.27
80323;BME280;69636;52.372;13.610;2023-12-29T06:14:31;100421.16;;;8.05;89.97
80323;BME280;69636;52.372;13.610;2023-12-29T06:16:58;100411.41;;;8.05;89.80
80323;BME280;69636;52.372;13.610;2023-12-29T06:19:25;100399.25;;;8.12;89.03
80323;BME280;69636;52.372;13.610;2023-12-29T06:21:53;100399.13;;;8.14;89.63
80323;BME280;69636;52.372;13.610;2023-12-29T06:24:21;100397.31;;;8.14;90.11
80323;BME280;69636;52.372;13.610;2023-12-29T06:26:49;100390.47;;;8.22;89.93
80323;BME280;69636;52.372;13.610;2023-12-29T06:29:16;100383.19;;;8.33;88.83
80323;BME280;69636;52.372;13.610;2023-12-29T06:31:43;100391.22;;;8.41;88.08
80323;BME280;69636;52.372;13.610;2023-12-29T06:34:11;100377.31;;;8.39;88.01
80323;BME280;69636;52.372;13.610;2023-12-29T06:36:38;100384.50;;;8.47;87.94
80323;BME280;69636;52.372;13.610;2023-12-29T06:39:06;100368.50;;;8.66;86.50
80323;BME280;69636;52.372;13.610;2023-12-29T06:41:34;100382.25;;;8.52;87.50
80323;BME280;69636;52.372;13.610;2023-12-29T06:44:02;100372.50;;;8.53;87.48
80323;BME280;69636;52.372;13.610;2023-12-29T06:46:29;100387.59;;;8.60;87.14
80323;BME280;69636;52.372;13.610;2023-12-29T06:48:56;100394.84;;;8.58;87.76
80323;BME280;69636;52.372;13.610;2023-12-29T06:51:24;100410.72;;;8.58;87.36
80323;BME280;69636;52.372;13.610;2023-12-29T06:53:51;100431.59;;;8.61;87.09
80323;BME280;69636;52.372;13.610;2023-12-29T06:56:19;100424.97;;;8.57;87.77
80323;BME280;69636;52.372;13.610;2023-12-29T06:58:48;100437.81;;;8.70;86.62
80323;BME280;69636;52.372;13.610;2023-12-29T07:01:15;100442.38;;;8.77;86.50
80323;BME280;69636;52.372;13.610;2023-12-29T07:03:43;100436.78;;;8.80;86.28
80323;BME280;69636;52.372;13.610;2023-12-29T07:06:11;100439.13;;;8.83;86.16
80323;BME280;69636;52.372;13.610;2023-12-29T07:08:39;100434.34;;;8.87;86.09
80323;BME280;69636;52.372;13.610;2023-12-29T07:11:09;100427.25;;;8.88;86.19
80323;BME280;69636;52.372;13.610;2023-12-29T07:13:37;100427.78;;;8.91;85.58
80323;BME280;69636;52.372;13.610;2023-12-29T07:16:06;100435.19;;;8.88;86.34
80323;BME280;69636;52.372;13.610;2023-12-29T07:18:34;100426.91;;;8.82;86.48
80323;BME280;69636;52.372;13.610;2023-12-29T07:21:02;100426.56;;;8.85;85.95
80323;BME280;69636;52.372;13.610;2023-12-29T07:23:29;100443.53;;;8.93;85.95
80323;BME280;69636;52.372;13.610;2023-12-29T07:26:34;100422.50;;;8.91;86.26
80323;BME280;69636;52.372;13.610;2023-12-29T07:29:04;100428.31;;;8.95;85.67
80323;BME280;69636;52.372;13.610;2023-12-29T07:31:32;100439.06;;;8.93;85.66
80323;BME280;69636;52.372;13.610;2023-12-29T07:34:00;100431.94;;;8.94;85.89
80323;BME280;69636;52.372;13.610;2023-12-29T07:36:28;100417.72;;;8.95;85.72
80323;BME280;69636;52.372;13.610;2023-12-29T07:38:55;100435.38;;;9.04;85.42
80323;BME280;69636;52.372;13.610;2023-12-29T07:41:22;100431.50;;;8.98;85.79
80323;BME280;69636;52.372;13.610;2023-12-29T07:43:50;100437.34;;;9.02;85.51
80323;BME280;69636;52.372;13.610;2023-12-29T07:46:24;100431.22;;;9.01;85.18
80323;BME280;69636;52.372;13.610;2023-12-29T07:48:53;100426.44;;;9.05;85.21
80323;BME280;69636;52.372;13.610;2023-12-29T07:51:21;100418.84;;;9.10;84.79
80323;BME280;69636;52.372;13.610;2023-12-29T07:54:13;100432.03;;;9.02;84.81
80323;BME280;69636;52.372;13.610;2023-12-29T07:56:43;100417.81;;;9.03;85.24
80323;BME280;69636;52.372;13.610;2023-12-29T07:59:13;100430.06;;;9.04;86.61
80323;BME280;69636;52.372;13.610;2023-12-29T08:01:40;100436.50;;;9.01;85.00
80323;BME280;69636;52.372;13.610;2023-12-29T08:04:37;100451.56;;;9.01;84.75
80323;BME280;69636;52.372;13.610;2023-12-29T08:07:04;100442.94;;;8.99;85.33
80323;BME280;69636;52.372;13.610;2023-12-29T08:09:31;100430.97;;;8.95;85.46
80323;BME280;69636;52.372;13.610;2023-12-29T08:11:59;100440.03;;;8.92;85.56
80323;BME280;69636;52.372;13.610;2023-12-29T08:14:26;100439.13;;;8.83;85.69
80323;BME280;69636;52.372;13.610;2023-12-29T08:16:53;100444.94;;;8.87;85.80
80323;BME280;69636;52.372;13.610;2023-12-29T08:19:23;100452.19;;;8.85;85.98
80323;BME280;69636;52.372;13.610;2023-12-29T08:22:00;100451.63;;;8.91;85.01
80323;BME280;69636;52.372;13.610;2023-12-29T08:24:28;100442.84;;;8.91;85.24
80323;BME280;69636;52.372;13.610;2023-12-29T08:26:55;100449.50;;;8.95;85.09
80323;BME280;69636;52.372;13.610;2023-12-29T08:29:22;100456.84;;;9.01;85.53
80323;BME280;69636;52.372;13.610;2023-12-29T08:31:49;100453.06;;;9.03;84.86
80323;BME280;69636;52.372;13.610;2023-12-29T08:34:17;100439.00;;;9.03;85.05
80323;BME280;69636;52.372;13.610;2023-12-29T08:36:47;100453.75;;;9.05;84.77
80323;BME280;69636;52.372;13.610;2023-12-29T08:39:18;100425.81;;;9.11;84.41
80323;BME280;69636;52.372;13.610;2023-12-29T08:41:46;100433.53;;;9.22;84.17
80323;BME280;69636;52.372;13.610;2023-12-29T08:44:14;100446.78;;;9.22;83.96
80323;BME280;69636;52.372;13.610;2023-12-29T08:46:41;100443.97;;;9.24;84.03
80323;BME280;69636;52.372;13.610;2023-12-29T08:49:08;100441.94;;;9.35;83.55
80323;BME280;69636;52.372;13.610;2023-12-29T08:51:36;100448.88;;;9.36;84.09
80323;BME280;69636;52.372;13.610;2023-12-29T08:54:03;100467.81;;;9.41;83.62
80323;BME280;69636;52.372;13.610;2023-12-29T08:56:31;100458.34;;;9.57;82.93
80323;BME280;69636;52.372;13.610;2023-12-29T08:58:59;100464.69;;;9.46;83.22
80323;BME280;69636;52.372;13.610;2023-12-29T09:01:26;100458.25;;;9.48;83.17
80323;BME280;69636;52.372;13.610;2023-12-29T09:03:53;100457.88;;;9.43;83.20
80323;BME280;69636;52.372;13.610;2023-12-29T09:06:21;100459.66;;;9.35;84.02
80323;BME280;69636;52.372;13.610;2023-12-29T09:08:48;100474.63;;;9.26;85.28
80323;BME280;69636;52.372;13.610;2023-12-29T09:11:16;100466.69;;;9.26;84.83
80323;BME280;69636;52.372;13.610;2023-12-29T09:13:45;100444.91;;;9.32;84.76
80323;BME280;69636;52.372;13.610;2023-12-29T09:16:12;100451.09;;;9.23;85.08
80323;BME280;69636;52.372;13.610;2023-12-29T09:18:40;100465.31;;;9.22;85.11
80323;BME280;69636;52.372;13.610;2023-12-29T09:21:07;100463.75;;;9.29;84.57
80323;BME280;69636;52.372;13.610;2023-12-29T09:23:34;100462.75;;;9.30;85.15
80323;BME280;69636;52.372;13.610;2023-12-29T09:26:02;100455.19;;;9.35;85.04
80323;BME280;69636;52.372;13.610;2023-12-29T09:28:31;100455.50;;;9.32;85.04
80323;BME280;69636;52.372;13.610;2023-12-29T09:31:00;100465.25;;;9.32;84.35
80323;BME280;69636;52.372;13.610;2023-12-29T09:33:28;100459.59;;;9.70;83.69
80323;BME280;69636;52.372;13.610;2023-12-29T09:35:55;100461.16;;;9.81;83.21
80323;BME280;69636;52.372;13.610;2023-12-29T09:38:22;100469.44;;;9.78;83.75
80323;BME280;69636;52.372;13.610;2023-12-29T09:40:50;100452.59;;;10.13;81.96
80323;BME280;69636;52.372;13.610;2023-12-29T09:43:19;100464.75;;;10.58;79.90
80323;BME280;69636;52.372;13.610;2023-12-29T09:45:48;100447.03;;;10.74;78.35
80323;BME280;69636;52.372;13.610;2023-12-29T09:48:21;100454.38;;;10.97;77.61
80323;BME280;69636;52.372;13.610;2023-12-29T09:50:50;100455.91;;;11.97;73.38
80323;BME280;69636;52.372;13.610;2023-12-29T09:53:19;100446.75;;;12.85;69.14
80323;BME280;69636;52.372;13.610;2023-12-29T09:55:48;100444.63;;;11.95;71.18
80323;BME280;69636;52.372;13.610;2023-12-29T09:58:18;100450.44;;;11.49;73.60
80323;BME280;69636;52.372;13.610;2023-12-29T10:00:47;100436.78;;;12.01;72.35
80323;BME280;69636;52.372;13.610;2023-12-29T10:03:16;100441.41;;;12.15;71.41
80323;BME280;69636;52.372;13.610;2023-12-29T10:05:49;100443.50;;;12.36;69.70
80323;BME280;69636;52.372;13.610;2023-12-29T10:08:17;100426.19;;;11.93;72.91
80323;BME280;69636;52.372;13.610;2023-12-29T10:10:46;100456.38;;;12.08;71.88
80323;BME280;69636;52.372;13.610;2023-12-29T10:13:16;100458.78;;;11.87;72.67
80323;BME280;69636;52.372;13.610;2023-12-29T10:15:49;100437.16;;;11.09;76.78
80323;BME280;69636;52.372;13.610;2023-12-29T10:18:21;100446.88;;;10.76;78.56
80323;BME280;69636;52.372;13.610;2023-12-29T10:20:58;100450.41;;;10.84;78.34
80323;BME280;69636;52.372;13.610;2023-12-29T10:23:32;100439.78;;;11.01;78.09
80323;BME280;69636;52.372;13.610;2023-12-29T10:26:03;100433.53;;;11.42;75.65
80323;BME280;69636;52.372;13.610;2023-12-29T10:28:31;100443.81;;;11.37;75.86
80323;BME280;69636;52.372;13.610;2023-12-29T10:30:59;100438.44;;;12.49;71.62
80323;BME280;69636;52.372;13.610;2023-12-29T10:33:26;100418.06;;;13.41;66.64
80323;BME280;69636;52.372;13.610;2023-12-29T10:35:58;100409.88;;;13.95;63.75
80323;BME280;69636;52.372;13.610;2023-12-29T10:38:27;100420.50;;;13.51;64.80
80323;BME280;69636;52.372;13.610;2023-12-29T10:41:09;100416.59;;;13.53;66.73
80323;BME280;69636;52.372;13.610;2023-12-29T10:43:37;100415.13;;;15.26;58.82
80323;BME280;69636;52.372;13.610;2023-12-29T10:46:06;100404.19;;;15.21;58.33
80323;BME280;69636;52.372;13.610;2023-12-29T10:48:34;100415.66;;;15.57;57.05
80323;BME280;69636;52.372;13.610;2023-12-29T10:51:03;100426.00;;;15.95;55.22
80323;BME280;69636;52.372;13.610;2023-12-29T10:53:31;100419.31;;;14.71;58.77
80323;BME280;69636;52.372;13.610;2023-12-29T10:55:59;100425.22;;;13.93;61.83
80323;BME280;69636;52.372;13.610;2023-12-29T10:58:26;100434.56;;;13.22;65.03
80323;BME280;69636;52.372;13.610;2023-12-29T11:00:54;100410.16;;;12.09;71.24
80323;BME280;69636;52.372;13.610;2023-12-29T11:03:22;100412.81;;;12.17;72.45
80323;BME280;69636;52.372;13.610;2023-12-29T11:05:49;100405.50;;;12.11;70.91
80323;BME280;69636;52.372;13.610;2023-12-29T11:08:20;100421.53;;;11.54;74.07
80323;BME280;69636;52.372;13.610;2023-12-29T11:10:48;100438.16;;;11.48;75.46
80323;BME280;69636;52.372;13.610;2023-12-29T11:13:16;100428.69;;;11.62;75.23
80323;BME280;69636;52.372;13.610;2023-12-29T11:15:47;100435.66;;;11.31;76.68
80323;BME280;69636;52.372;13.610;2023-12-29T11:18:15;100437.50;;;11.14;77.50
80323;BME280;69636;52.372;13.610;2023-12-29T11:20:44;100424.81;;;10.92;78.83
80323;BME280;69636;52.372;13.610;2023-12-29T11:23:12;100432.63;;;10.85;79.18
80323;BME280;69636;52.372;13.610;2023-12-29T11:25:44;100430.44;;;10.72;80.39
80323;BME280;69636;52.372;13.610;2023-12-29T11:28:11;100428.13;;;10.77;80.49
80323;BME280;69636;52.372;13.610;2023-12-29T11:30:39;100431.09;;;10.74;80.48
80323;BME280;69636;52.372;13.610;2023-12-29T11:33:10;100435.91;;;10.71;80.37
80323;BME280;69636;52.372;13.610;2023-12-29T11:35:43;100418.47;;;10.60;81.29
80323;BME280;69636;52.372;13.610;2023-12-29T11:38:23;100403.69;;;10.58;81.47
80323;BME280;69636;52.372;13.610;2023-12-29T11:41:00;100405.53;;;10.57;81.27
80323;BME280;69636;52.372;13.610;2023-12-29T11:43:29;100398.22;;;10.59;80.77
80323;BME280;69636;52.372;13.610;2023-12-29T11:45:57;100399.84;;;10.52;81.15
80323;BME280;69636;52.372;13.610;2023-12-29T11:48:55;100397.88;;;10.54;81.42
80323;BME280;69636;52.372;13.610;2023-12-29T11:51:34;100387.41;;;10.52;80.91
80323;BME280;69636;52.372;13.610;2023-12-29T11:54:02;100400.53;;;10.54;81.00
80323;BME280;69636;52.372;13.610;2023-12-29T11:56:33;100392.72;;;10.52;81.50
80323;BME280;69636;52.372;13.610;2023-12-29T11:59:14;100396.38;;;10.51;82.10
80323;BME280;69636;52.372;13.610;2023-12-29T12:01:43;100381.94;;;10.46;83.31
80323;BME280;69636;52.372;13.610;2023-12-29T12:04:38;100384.56;;;10.46;82.15
80323;BME280;69636;52.372;13.610;2023-12-29T12:07:08;100387.59;;;10.51;81.23
80323;BME280;69636;52.372;13.610;2023-12-29T12:09:35;100385.13;;;10.58;81.53
80323;BME280;69636;52.372;13.610;2023-12-29T12:12:05;100385.28;;;10.56;81.31
80323;BME280;69636;52.372;13.610;2023-12-29T12:14:50;100386.47;;;10.62;81.31
80323;BME280;69636;52.372;13.610;2023-12-29T12:17:31;100389.25;;;10.52;83.17
80323;BME280;69636;52.372;13.610;2023-12-29T12:20:04;100396.19;;;10.45;82.04
80323;BME280;69636;52.372;13.610;2023-12-29T12:22:37;100396.66;;;10.40;83.11
80323;BME280;69636;52.372;13.610;2023-12-29T12:25:06;100394.84;;;10.41;83.21
80323;BME280;69636;52.372;13.610;2023-12-29T12:27:38;100394.34;;;10.37;83.62
80323;BME280;69636;52.372;13.610;2023-12-29T12:30:07;100400.66;;;10.36;83.46
80323;BME280;69636;52.372;13.610;2023-12-29T12:32:34;100395.81;;;10.32;83.80
80323;BME280;69636;52.372;13.610;2023-12-29T12:35:02;100385.84;;;10.26;86.62
80323;BME280;69636;52.372;13.610;2023-12-29T12:37:31;100382.84;;;10.20;87.64
80323;BME280;69636;52.372;13.610;2023-12-29T12:39:58;100375.47;;;10.06;88.55
80323;BME280;69636;52.372;13.610;2023-12-29T12:42:25;100376.81;;;10.10;87.26
80323;BME280;69636;52.372;13.610;2023-12-29T12:44:56;100379.47;;;10.18;87.22
80323;BME280;69636;52.372;13.610;2023-12-29T12:47:34;100387.44;;;10.18;86.84
80323;BME280;69636;52.372;13.610;2023-12-29T12:50:05;100376.56;;;10.30;85.31
80323;BME280;69636;52.372;13.610;2023-12-29T12:52:33;100368.31;;;10.41;84.60
80323;BME280;69636;52.372;13.610;2023-12-29T12:55:03;100366.31;;;10.43;84.25
80323;BME280;69636;52.372;13.610;2023-12-29T12:57:31;100363.66;;;10.35;85.03
80323;BME280;69636;52.372;13.610;2023-12-29T13:00:00;100371.31;;;10.38;84.69